»·PEaware :: N275ND KSNA-KSNA

N275ND :: KSNA-KSNA

FLIGHT INFORMATION

Flight Status: Arrived
Operator: Privately registered:
United States
More flights under this callsign
Pilot: John A. (19135)
Aircraft: CESSNA 172 SKYHAWK
(C172)
More flights by this aircraft type
Origin: KSNA John Wayne-Orange Co
United States
Destination: KSNA John Wayne-Orange Co
United States
More flights between these airports :: More routes between these airports
Route: I RATING
File this flight plan on PilotEdge
Remarks: I rate
Altitude:
(Current/Filed)
3,000ft
Speed:
(Current/Filed)
150kts
Departed: 20-Jul-19 09:44 AM
Arrived: 20-Jul-19 10:10 AM
Distance/Time
Traveled:
1nm/0:25
Distance/Time
To Go:
Arrived

Flight Plot

Page will automatically refresh every two minutes.

Flight plan parsing failed; only flown route is shown


Map Options




Map Legend


Flown Route
Filed Route
Departure Airport
Arrival Airport
Navaid (VOR, NDB)
Fix

Horizontal Profiles

Position Reports

Time Latitude Longitude Heading Altitude Ground
Speed
20-Jul-19 09:06 33.667693 -117.871622 208 60ft 0kts
20-Jul-19 09:07 33.667693 -117.871622 208 60ft 0kts
20-Jul-19 09:08 33.667673 -117.871636 210 60ft 0kts
20-Jul-19 09:09 33.667590 -117.871695 210 60ft 0kts
20-Jul-19 09:10 33.667513 -117.871750 210 60ft 0kts
20-Jul-19 09:11 33.667182 -117.872088 218 60ft 0kts
20-Jul-19 09:12 33.667182 -117.872088 218 60ft 0kts
20-Jul-19 09:13 33.667182 -117.872088 218 60ft 0kts
20-Jul-19 09:14 33.667182 -117.872088 218 60ft 0kts
20-Jul-19 09:15 33.667182 -117.872088 218 60ft 0kts
20-Jul-19 09:16 33.667182 -117.872088 218 60ft 0kts
20-Jul-19 09:19 33.671769 -117.866960 206 60ft 0kts
20-Jul-19 09:20 33.671769 -117.866960 206 60ft 0kts
20-Jul-19 09:21 33.671769 -117.866960 206 60ft 0kts
20-Jul-19 09:22 33.671769 -117.866960 206 60ft 0kts
20-Jul-19 09:23 33.671769 -117.866960 206 60ft 0kts
20-Jul-19 09:24 33.671769 -117.866960 206 60ft 0kts
20-Jul-19 09:25 33.671769 -117.866960 206 60ft 0kts
20-Jul-19 09:26 33.671769 -117.866960 206 60ft 0kts
20-Jul-19 09:27 33.671769 -117.866960 206 60ft 0kts
20-Jul-19 09:28 33.671769 -117.866960 206 60ft 0kts
20-Jul-19 09:29 33.671769 -117.866960 206 60ft 0kts
20-Jul-19 09:30 33.671769 -117.866960 206 60ft 0kts
20-Jul-19 09:31 33.671769 -117.866960 206 60ft 0kts
20-Jul-19 09:32 33.671749 -117.866980 231 60ft 3kts
20-Jul-19 09:33 33.671733 -117.867238 271 60ft 0kts
20-Jul-19 09:34 33.671733 -117.867238 271 60ft 0kts
20-Jul-19 09:35 33.671733 -117.867238 271 60ft 0kts
20-Jul-19 09:36 33.671733 -117.867238 271 60ft 0kts
20-Jul-19 09:37 33.671733 -117.867238 271 60ft 0kts
20-Jul-19 09:38 33.671804 -117.867583 292 60ft 9kts
20-Jul-19 09:39 33.675010 -117.866517 30 60ft 11kts
20-Jul-19 09:40 33.678863 -117.864078 28 60ft 17kts
20-Jul-19 09:41 33.679903 -117.863508 298 60ft 0kts
20-Jul-19 09:42 33.679903 -117.863508 298 60ft 0kts
20-Jul-19 09:44 33.673874 -117.868149 208 185ft 70kts
20-Jul-19 09:45 33.660927 -117.887311 252 1063ft 80kts
20-Jul-19 09:46 33.654445 -117.914814 247 1934ft 86kts
20-Jul-19 09:47 33.647009 -117.941887 249 2737ft 89kts
20-Jul-19 09:48 33.639836 -117.974080 260 3090ft 99kts
20-Jul-19 09:49 33.658031 -117.976234 29 3010ft 105kts
20-Jul-19 09:50 33.681576 -117.955009 34 3002ft 110kts
20-Jul-19 09:51 33.706466 -117.934732 23 3038ft 109kts
20-Jul-19 09:52 33.733828 -117.919464 19 3075ft 108kts
20-Jul-19 09:53 33.762436 -117.904372 21 3011ft 110kts
20-Jul-19 09:54 33.789961 -117.888689 24 2915ft 109kts
20-Jul-19 09:55 33.815838 -117.873849 23 2931ft 104kts
20-Jul-19 09:56 33.843316 -117.861779 8 3032ft 111kts
20-Jul-19 09:57 33.871981 -117.846747 27 3053ft 115kts
20-Jul-19 09:58 33.900774 -117.828674 24 2985ft 118kts
20-Jul-19 09:59 33.923990 -117.805657 107 2977ft 116kts
20-Jul-19 10:00 33.895298 -117.805479 183 2904ft 112kts
20-Jul-19 10:01 33.882451 -117.777018 102 2997ft 107kts
20-Jul-19 10:02 33.854904 -117.773955 188 2994ft 111kts
20-Jul-19 10:03 33.826105 -117.777910 186 2953ft 100kts
20-Jul-19 10:04 33.802276 -117.795657 212 2889ft 90kts
20-Jul-19 10:04 33.781950 -117.804653 188 2741ft 88kts
20-Jul-19 10:05 33.761087 -117.818388 209 2165ft 87kts
20-Jul-19 10:07 33.731515 -117.834006 194 1196ft 76kts
20-Jul-19 10:07 33.712526 -117.845376 207 706ft 84kts
20-Jul-19 10:08 33.690191 -117.859769 207 312ft 80kts
20-Jul-19 10:09 33.677469 -117.866982 118 60ft 14kts
20-Jul-19 10:10 33.676648 -117.865504 190 60ft 12kts
20-Jul-19 10:11 33.671894 -117.868270 206 60ft 24kts
20-Jul-19 10:12 33.667711 -117.871795 141 60ft 10kts
20-Jul-19 10:13 33.667535 -117.871314 33 60ft 0kts
20-Jul-19 10:14 33.667535 -117.871314 33 60ft 0kts
20-Jul-19 10:15 33.667535 -117.871314 33 60ft 0kts
20-Jul-19 10:16 33.667535 -117.871314 33 60ft 0kts
20-Jul-19 10:17 33.667535 -117.871314 33 60ft 0kts
20-Jul-19 10:18 33.667535 -117.871314 33 60ft 0kts
20-Jul-19 10:19 33.667535 -117.871314 33 60ft 0kts
20-Jul-19 10:20 33.667535 -117.871314 33 60ft 0kts
20-Jul-19 10:21 33.667535 -117.871314 33 60ft 0kts
20-Jul-19 10:22 33.667535 -117.871314 33 60ft 0kts
20-Jul-19 10:23 33.667535 -117.871314 33 60ft 0kts

Navigation Log

Ident Type
Flight plan parsing failed, navigation log unavailable